sensor_id;sensor_type;location;lat;lon;timestamp;pressure;altitude;pressure_sealevel;temperature;humidity
6090;BME280;3073;42.660;23.316;2023-05-17T00:01:27;93912.47;;;23.49;80.56
6090;BME280;3073;42.660;23.316;2023-05-17T00:03:54;93922.28;;;22.31;89.23
6090;BME280;3073;42.660;23.316;2023-05-17T00:06:21;93922.50;;;23.23;84.53
6090;BME280;3073;42.660;23.316;2023-05-17T00:08:47;93932.34;;;23.81;81.08
6090;BME280;3073;42.660;23.316;2023-05-17T00:11:16;93922.13;;;23.88;78.63
6090;BME280;3073;42.660;23.316;2023-05-17T00:13:45;93925.47;;;24.17;77.73
6090;BME280;3073;42.660;23.316;2023-05-17T00:16:11;93921.03;;;24.33;76.65
6090;BME280;3073;42.660;23.316;2023-05-17T00:18:38;93915.63;;;24.26;76.71
6090;BME280;3073;42.660;23.316;2023-05-17T00:21:05;93915.81;;;24.33;76.26
6090;BME280;3073;42.660;23.316;2023-05-17T00:23:32;93909.50;;;24.34;75.51
6090;BME280;3073;42.660;23.316;2023-05-17T00:25:59;93912.63;;;24.24;76.46
6090;BME280;3073;42.660;23.316;2023-05-17T00:28:26;93913.88;;;24.30;75.89
6090;BME280;3073;42.660;23.316;2023-05-17T00:30:54;93918.06;;;24.19;75.68
6090;BME280;3073;42.660;23.316;2023-05-17T00:33:21;93916.69;;;24.09;75.31
6090;BME280;3073;42.660;23.316;2023-05-17T00:35:47;93915.13;;;23.92;76.33
6090;BME280;3073;42.660;23.316;2023-05-17T00:38:14;93912.13;;;23.90;76.79
6090;BME280;3073;42.660;23.316;2023-05-17T00:40:41;93913.19;;;23.89;76.91
6090;BME280;3073;42.660;23.316;2023-05-17T00:43:08;93923.00;;;23.52;78.65
6090;BME280;3073;42.660;23.316;2023-05-17T00:45:35;93926.38;;;23.53;79.35
6090;BME280;3073;42.660;23.316;2023-05-17T00:48:04;93918.13;;;22.87;83.42
6090;BME280;3073;42.660;23.316;2023-05-17T00:50:31;93914.53;;;23.03;82.41
6090;BME280;3073;42.660;23.316;2023-05-17T00:52:58;93928.28;;;23.68;79.93
6090;BME280;3073;42.660;23.316;2023-05-17T00:55:28;93928.25;;;23.28;81.87
6090;BME280;3073;42.660;23.316;2023-05-17T00:58:00;93932.00;;;22.10;88.59
6090;BME280;3073;42.660;23.316;2023-05-17T01:00:28;93928.03;;;22.48;86.75
6090;BME280;3073;42.660;23.316;2023-05-17T01:02:55;93934.00;;;22.37;88.94
6090;BME280;3073;42.660;23.316;2023-05-17T01:05:23;93936.72;;;23.25;82.10
6090;BME280;3073;42.660;23.316;2023-05-17T01:07:52;93929.66;;;23.38;80.65
6090;BME280;3073;42.660;23.316;2023-05-17T01:10:19;93925.84;;;23.35;79.41
6090;BME280;3073;42.660;23.316;2023-05-17T01:12:55;93923.03;;;23.40;78.94
6090;BME280;3073;42.660;23.316;2023-05-17T01:15:29;93924.09;;;23.51;78.50
6090;BME280;3073;42.660;23.316;2023-05-17T01:18:08;93920.19;;;23.57;76.98
6090;BME280;3073;42.660;23.316;2023-05-17T01:20:42;93920.59;;;23.59;76.96
6090;BME280;3073;42.660;23.316;2023-05-17T01:23:22;93930.78;;;23.65;76.19
6090;BME280;3073;42.660;23.316;2023-05-17T01:25:56;93931.00;;;23.59;77.16
6090;BME280;3073;42.660;23.316;2023-05-17T01:28:26;93933.09;;;23.54;76.45
6090;BME280;3073;42.660;23.316;2023-05-17T01:30:56;93921.50;;;23.39;76.88
6090;BME280;3073;42.660;23.316;2023-05-17T01:33:24;93925.31;;;23.30;77.06
6090;BME280;3073;42.660;23.316;2023-05-17T01:35:51;93919.00;;;22.91;78.30
6090;BME280;3073;42.660;23.316;2023-05-17T01:38:18;93918.84;;;22.51;79.91
6090;BME280;3073;42.660;23.316;2023-05-17T01:40:49;93914.63;;;22.58;79.49
6090;BME280;3073;42.660;23.316;2023-05-17T01:43:21;93918.84;;;22.63;78.08
6090;BME280;3073;42.660;23.316;2023-05-17T01:45:58;93913.22;;;22.61;78.44
6090;BME280;3073;42.660;23.316;2023-05-17T01:48:31;93919.31;;;22.89;76.68
6090;BME280;3073;42.660;23.316;2023-05-17T01:51:01;93920.59;;;23.07;75.73
6090;BME280;3073;42.660;23.316;2023-05-17T01:53:34;93921.69;;;22.94;74.60
6090;BME280;3073;42.660;23.316;2023-05-17T01:56:07;93915.16;;;22.52;76.71
6090;BME280;3073;42.660;23.316;2023-05-17T01:58:41;93908.69;;;22.82;76.51
6090;BME280;3073;42.660;23.316;2023-05-17T02:01:12;93904.88;;;22.92;75.80
6090;BME280;3073;42.660;23.316;2023-05-17T02:03:40;93907.63;;;22.71;75.79
6090;BME280;3073;42.660;23.316;2023-05-17T02:06:07;93910.63;;;22.85;75.09
6090;BME280;3073;42.660;23.316;2023-05-17T02:08:33;93915.84;;;22.97;75.07
6090;BME280;3073;42.660;23.316;2023-05-17T02:11:00;93923.00;;;22.88;75.12
6090;BME280;3073;42.660;23.316;2023-05-17T02:13:27;93911.47;;;22.53;76.94
6090;BME280;3073;42.660;23.316;2023-05-17T02:15:54;93910.38;;;22.42;77.03
6090;BME280;3073;42.660;23.316;2023-05-17T02:18:26;93904.78;;;22.64;75.85
6090;BME280;3073;42.660;23.316;2023-05-17T02:20:53;93904.44;;;22.53;76.33
6090;BME280;3073;42.660;23.316;2023-05-17T02:23:20;93915.16;;;22.52;75.29
6090;BME280;3073;42.660;23.316;2023-05-17T02:25:49;93905.41;;;22.49;75.60
6090;BME280;3073;42.660;23.316;2023-05-17T02:28:16;93905.25;;;22.78;73.54
6090;BME280;3073;42.660;23.316;2023-05-17T02:30:43;93903.59;;;22.74;73.13
6090;BME280;3073;42.660;23.316;2023-05-17T02:33:10;93904.91;;;22.80;71.84
6090;BME280;3073;42.660;23.316;2023-05-17T02:35:39;93909.13;;;21.70;77.76
6090;BME280;3073;42.660;23.316;2023-05-17T02:38:05;93905.34;;;20.38;87.63
6090;BME280;3073;42.660;23.316;2023-05-17T02:40:32;93900.75;;;20.44;89.40
6090;BME280;3073;42.660;23.316;2023-05-17T02:42:59;93903.97;;;20.99;85.16
6090;BME280;3073;42.660;23.316;2023-05-17T02:45:26;93910.16;;;21.57;80.87
6090;BME280;3073;42.660;23.316;2023-05-17T02:47:52;93912.75;;;21.16;84.09
6090;BME280;3073;42.660;23.316;2023-05-17T02:50:19;93921.97;;;21.25;84.06
6090;BME280;3073;42.660;23.316;2023-05-17T02:52:54;93920.16;;;21.46;82.38
6090;BME280;3073;42.660;23.316;2023-05-17T02:55:21;93930.19;;;21.06;85.31
6090;BME280;3073;42.660;23.316;2023-05-17T02:57:47;93925.97;;;20.93;86.21
6090;BME280;3073;42.660;23.316;2023-05-17T03:00:15;93926.63;;;21.40;83.90
6090;BME280;3073;42.660;23.316;2023-05-17T03:02:42;93942.22;;;21.73;82.27
6090;BME280;3073;42.660;23.316;2023-05-17T03:05:09;93944.16;;;21.43;82.69
6090;BME280;3073;42.660;23.316;2023-05-17T03:07:36;93938.06;;;21.60;81.91
6090;BME280;3073;42.660;23.316;2023-05-17T03:10:05;93947.59;;;21.89;80.56
6090;BME280;3073;42.660;23.316;2023-05-17T03:12:32;93952.09;;;22.00;79.38
6090;BME280;3073;42.660;23.316;2023-05-17T03:14:59;93952.75;;;21.97;79.08
6090;BME280;3073;42.660;23.316;2023-05-17T03:17:26;93953.84;;;22.08;78.79
6090;BME280;3073;42.660;23.316;2023-05-17T03:19:53;93959.81;;;22.09;78.31
6090;BME280;3073;42.660;23.316;2023-05-17T03:22:19;93962.75;;;21.66;78.70
6090;BME280;3073;42.660;23.316;2023-05-17T03:24:46;93964.91;;;21.85;78.58
6090;BME280;3073;42.660;23.316;2023-05-17T03:27:14;93974.03;;;22.12;76.86
6090;BME280;3073;42.660;23.316;2023-05-17T03:29:41;93962.75;;;22.08;76.66
6090;BME280;3073;42.660;23.316;2023-05-17T03:32:08;93958.94;;;21.84;77.47
6090;BME280;3073;42.660;23.316;2023-05-17T03:34:35;93960.97;;;21.99;76.73
6090;BME280;3073;42.660;23.316;2023-05-17T03:37:02;93956.66;;;21.83;77.04
6090;BME280;3073;42.660;23.316;2023-05-17T03:39:28;93957.94;;;21.97;76.05
6090;BME280;3073;42.660;23.316;2023-05-17T03:41:55;93954.09;;;22.16;75.82
6090;BME280;3073;42.660;23.316;2023-05-17T03:44:24;93957.50;;;21.95;75.24
6090;BME280;3073;42.660;23.316;2023-05-17T03:46:50;93950.22;;;21.47;77.24
6090;BME280;3073;42.660;23.316;2023-05-17T03:49:17;93953.38;;;21.74;76.14
6090;BME280;3073;42.660;23.316;2023-05-17T03:51:45;93954.50;;;22.05;74.24
6090;BME280;3073;42.660;23.316;2023-05-17T03:54:12;93956.81;;;21.66;75.73
6090;BME280;3073;42.660;23.316;2023-05-17T03:56:38;93957.88;;;20.94;77.12
6090;BME280;3073;42.660;23.316;2023-05-17T03:59:07;93956.78;;;21.86;75.17
6090;BME280;3073;42.660;23.316;2023-05-17T04:01:36;93962.25;;;21.93;74.04
6090;BME280;3073;42.660;23.316;2023-05-17T04:04:03;93958.59;;;21.53;75.39
6090;BME280;3073;42.660;23.316;2023-05-17T04:06:31;93957.13;;;21.64;76.28
6090;BME280;3073;42.660;23.316;2023-05-17T04:08:57;93956.19;;;21.89;74.85
6090;BME280;3073;42.660;23.316;2023-05-17T04:11:24;93957.72;;;22.35;73.77
6090;BME280;3073;42.660;23.316;2023-05-17T04:13:59;93963.44;;;22.29;74.26
6090;BME280;3073;42.660;23.316;2023-05-17T04:16:26;93964.53;;;21.74;76.56
6090;BME280;3073;42.660;23.316;2023-05-17T04:18:59;93952.63;;;21.94;75.18
6090;BME280;3073;42.660;23.316;2023-05-17T04:21:27;93952.13;;;22.13;75.40
6090;BME280;3073;42.660;23.316;2023-05-17T04:23:53;93957.22;;;21.88;76.96
6090;BME280;3073;42.660;23.316;2023-05-17T04:26:20;93956.69;;;22.16;76.52
6090;BME280;3073;42.660;23.316;2023-05-17T04:28:47;93949.41;;;22.09;76.78
6090;BME280;3073;42.660;23.316;2023-05-17T04:31:16;93951.28;;;21.26;80.12
6090;BME280;3073;42.660;23.316;2023-05-17T04:33:43;93952.59;;;22.15;77.02
6090;BME280;3073;42.660;23.316;2023-05-17T04:36:11;93949.72;;;22.40;75.97
6090;BME280;3073;42.660;23.316;2023-05-17T04:38:38;93960.28;;;22.80;74.18
6090;BME280;3073;42.660;23.316;2023-05-17T04:41:05;93949.34;;;22.18;76.94
6090;BME280;3073;42.660;23.316;2023-05-17T04:43:34;93953.38;;;22.27;75.14
6090;BME280;3073;42.660;23.316;2023-05-17T04:46:02;93949.47;;;21.68;77.32
6090;BME280;3073;42.660;23.316;2023-05-17T04:48:30;93956.16;;;22.67;75.40
6090;BME280;3073;42.660;23.316;2023-05-17T04:50:59;93953.97;;;22.57;74.92
6090;BME280;3073;42.660;23.316;2023-05-17T04:53:27;93954.03;;;21.91;76.57
6090;BME280;3073;42.660;23.316;2023-05-17T04:55:55;93956.88;;;22.43;74.42
6090;BME280;3073;42.660;23.316;2023-05-17T04:58:22;93958.56;;;22.84;72.20
6090;BME280;3073;42.660;23.316;2023-05-17T05:00:49;93969.16;;;22.67;72.48
6090;BME280;3073;42.660;23.316;2023-05-17T05:03:16;93964.56;;;22.52;71.23
6090;BME280;3073;42.660;23.316;2023-05-17T05:05:43;93960.63;;;22.34;73.06
6090;BME280;3073;42.660;23.316;2023-05-17T05:08:10;93967.56;;;22.42;71.82
6090;BME280;3073;42.660;23.316;2023-05-17T05:10:38;93964.97;;;22.30;72.47
6090;BME280;3073;42.660;23.316;2023-05-17T05:13:05;93973.38;;;22.15;72.82
6090;BME280;3073;42.660;23.316;2023-05-17T05:15:31;93980.00;;;22.69;70.85
6090;BME280;3073;42.660;23.316;2023-05-17T05:17:58;93973.53;;;22.87;69.88
6090;BME280;3073;42.660;23.316;2023-05-17T05:20:25;93969.16;;;22.79;68.43
6090;BME280;3073;42.660;23.316;2023-05-17T05:22:52;93978.25;;;23.34;67.77
6090;BME280;3073;42.660;23.316;2023-05-17T05:25:19;93972.31;;;23.73;68.10
6090;BME280;3073;42.660;23.316;2023-05-17T05:27:47;93969.00;;;23.61;66.54
6090;BME280;3073;42.660;23.316;2023-05-17T05:30:14;93976.19;;;23.51;65.45
6090;BME280;3073;42.660;23.316;2023-05-17T05:32:47;93978.59;;;23.84;64.71
6090;BME280;3073;42.660;23.316;2023-05-17T05:35:14;93983.50;;;24.14;63.48
6090;BME280;3073;42.660;23.316;2023-05-17T05:37:41;93977.72;;;24.36;63.23
6090;BME280;3073;42.660;23.316;2023-05-17T05:40:09;93976.03;;;24.28;64.73
6090;BME280;3073;42.660;23.316;2023-05-17T05:42:36;93972.94;;;25.32;60.24
6090;BME280;3073;42.660;23.316;2023-05-17T05:45:05;93977.75;;;25.14;60.97
6090;BME280;3073;42.660;23.316;2023-05-17T05:47:32;93979.00;;;24.42;62.12
6090;BME280;3073;42.660;23.316;2023-05-17T05:49:59;93980.00;;;24.37;61.11
6090;BME280;3073;42.660;23.316;2023-05-17T05:52:26;93975.59;;;24.26;60.49
6090;BME280;3073;42.660;23.316;2023-05-17T05:54:52;93968.19;;;25.91;57.09
6090;BME280;3073;42.660;23.316;2023-05-17T05:57:19;93980.88;;;26.12;56.48
6090;BME280;3073;42.660;23.316;2023-05-17T05:59:46;93978.84;;;27.08;54.66
6090;BME280;3073;42.660;23.316;2023-05-17T06:02:14;93990.06;;;26.41;54.04
6090;BME280;3073;42.660;23.316;2023-05-17T06:04:41;93986.34;;;25.84;55.33
6090;BME280;3073;42.660;23.316;2023-05-17T06:07:08;93989.22;;;25.60;56.09
6090;BME280;3073;42.660;23.316;2023-05-17T06:09:35;93993.94;;;26.28;53.83
6090;BME280;3073;42.660;23.316;2023-05-17T06:12:02;93995.16;;;26.79;52.78
6090;BME280;3073;42.660;23.316;2023-05-17T06:14:29;94003.47;;;26.81;52.94
6090;BME280;3073;42.660;23.316;2023-05-17T06:16:55;93995.03;;;26.91;53.07
6090;BME280;3073;42.660;23.316;2023-05-17T06:19:24;93990.56;;;26.27;53.64
6090;BME280;3073;42.660;23.316;2023-05-17T06:21:51;93995.72;;;26.24;53.65
6090;BME280;3073;42.660;23.316;2023-05-17T06:24:19;93995.56;;;25.43;55.57
6090;BME280;3073;42.660;23.316;2023-05-17T06:26:46;94002.22;;;25.41;56.81
6090;BME280;3073;42.660;23.316;2023-05-17T06:29:13;94001.34;;;25.02;57.22
6090;BME280;3073;42.660;23.316;2023-05-17T06:31:40;94004.91;;;25.79;55.48
6090;BME280;3073;42.660;23.316;2023-05-17T06:34:07;93998.72;;;25.18;57.50
6090;BME280;3073;42.660;23.316;2023-05-17T06:36:35;94010.09;;;24.78;58.02
6090;BME280;3073;42.660;23.316;2023-05-17T06:39:02;93992.66;;;24.67;59.08
6090;BME280;3073;42.660;23.316;2023-05-17T06:41:29;94003.69;;;24.60;58.48
6090;BME280;3073;42.660;23.316;2023-05-17T06:43:55;93996.91;;;24.87;57.88
6090;BME280;3073;42.660;23.316;2023-05-17T06:46:22;93997.28;;;26.09;56.55
6090;BME280;3073;42.660;23.316;2023-05-17T06:48:49;93993.63;;;25.40;58.01
6090;BME280;3073;42.660;23.316;2023-05-17T06:51:16;93995.81;;;25.54;57.31
6090;BME280;3073;42.660;23.316;2023-05-17T06:53:44;93987.63;;;26.13;56.83
6090;BME280;3073;42.660;23.316;2023-05-17T06:56:11;93993.25;;;26.76;54.64
6090;BME280;3073;42.660;23.316;2023-05-17T06:58:38;93991.22;;;26.85;54.96
6090;BME280;3073;42.660;23.316;2023-05-17T07:01:05;93996.31;;;27.27;53.03
6090;BME280;3073;42.660;23.316;2023-05-17T07:03:32;93998.22;;;27.04;54.23
6090;BME280;3073;42.660;23.316;2023-05-17T07:06:00;94006.69;;;27.20;53.42
6090;BME280;3073;42.660;23.316;2023-05-17T07:08:27;94006.03;;;28.46;51.76
6090;BME280;3073;42.660;23.316;2023-05-17T07:10:55;94014.47;;;27.95;52.14
6090;BME280;3073;42.660;23.316;2023-05-17T07:13:22;94016.84;;;29.22;49.45
6090;BME280;3073;42.660;23.316;2023-05-17T07:15:48;94024.03;;;28.44;50.03
6090;BME280;3073;42.660;23.316;2023-05-17T07:18:15;94014.06;;;26.69;53.99
6090;BME280;3073;42.660;23.316;2023-05-17T07:20:42;94005.75;;;28.18;52.22
6090;BME280;3073;42.660;23.316;2023-05-17T07:23:09;94015.25;;;27.43;52.94
6090;BME280;3073;42.660;23.316;2023-05-17T07:25:36;94013.69;;;27.91;52.42
6090;BME280;3073;42.660;23.316;2023-05-17T07:28:06;94022.72;;;27.41;51.97
6090;BME280;3073;42.660;23.316;2023-05-17T07:30:33;94029.34;;;26.86;53.96
6090;BME280;3073;42.660;23.316;2023-05-17T07:33:00;94019.25;;;26.24;54.46
6090;BME280;3073;42.660;23.316;2023-05-17T07:35:27;94016.56;;;25.82;56.57
6090;BME280;3073;42.660;23.316;2023-05-17T07:37:53;94015.41;;;26.18;56.56
6090;BME280;3073;42.660;23.316;2023-05-17T07:40:20;94026.59;;;27.25;54.84
6090;BME280;3073;42.660;23.316;2023-05-17T07:42:47;94032.19;;;26.78;55.25
6090;BME280;3073;42.660;23.316;2023-05-17T07:45:15;94029.19;;;27.74;53.69
6090;BME280;3073;42.660;23.316;2023-05-17T07:47:42;94028.56;;;26.63;54.87
6090;BME280;3073;42.660;23.316;2023-05-17T07:50:10;94018.19;;;26.89;54.37
6090;BME280;3073;42.660;23.316;2023-05-17T07:52:37;94026.56;;;26.98;53.97
6090;BME280;3073;42.660;23.316;2023-05-17T07:55:04;94023.38;;;26.44;55.36
6090;BME280;3073;42.660;23.316;2023-05-17T07:57:31;94023.31;;;27.31;53.31
6090;BME280;3073;42.660;23.316;2023-05-17T07:59:58;94020.78;;;26.89;54.19
6090;BME280;3073;42.660;23.316;2023-05-17T08:02:26;94022.56;;;27.04;53.58
6090;BME280;3073;42.660;23.316;2023-05-17T08:04:53;94019.13;;;27.00;54.42
6090;BME280;3073;42.660;23.316;2023-05-17T08:07:20;94016.91;;;27.81;54.10
6090;BME280;3073;42.660;23.316;2023-05-17T08:09:46;94020.97;;;26.35;55.20
6090;BME280;3073;42.660;23.316;2023-05-17T08:12:13;94015.47;;;27.31;52.82
6090;BME280;3073;42.660;23.316;2023-05-17T08:14:40;94025.69;;;27.96;51.56
6090;BME280;3073;42.660;23.316;2023-05-17T08:17:07;94023.16;;;28.33;51.32
6090;BME280;3073;42.660;23.316;2023-05-17T08:19:35;94012.84;;;28.50;50.67
6090;BME280;3073;42.660;23.316;2023-05-17T08:22:03;94020.19;;;28.04;51.13
6090;BME280;3073;42.660;23.316;2023-05-17T08:24:30;94019.69;;;29.02;50.43
6090;BME280;3073;42.660;23.316;2023-05-17T08:26:57;94023.56;;;28.35;50.98
6090;BME280;3073;42.660;23.316;2023-05-17T08:29:24;94022.09;;;28.74;50.89
6090;BME280;3073;42.660;23.316;2023-05-17T08:31:52;94009.25;;;27.99;51.17
6090;BME280;3073;42.660;23.316;2023-05-17T08:34:19;94009.03;;;27.51;52.02
6090;BME280;3073;42.660;23.316;2023-05-17T08:36:48;94006.59;;;28.62;51.27
6090;BME280;3073;42.660;23.316;2023-05-17T08:39:15;94013.75;;;29.05;49.91
6090;BME280;3073;42.660;23.316;2023-05-17T08:41:42;94016.69;;;29.00;49.47
6090;BME280;3073;42.660;23.316;2023-05-17T08:44:09;94029.19;;;29.14;48.93
6090;BME280;3073;42.660;23.316;2023-05-17T08:46:39;94024.44;;;27.56;50.49
6090;BME280;3073;42.660;23.316;2023-05-17T08:49:07;94015.72;;;27.75;51.11
6090;BME280;3073;42.660;23.316;2023-05-17T08:51:37;94008.13;;;28.30;49.94
6090;BME280;3073;42.660;23.316;2023-05-17T08:54:07;94012.38;;;28.78;50.29
6090;BME280;3073;42.660;23.316;2023-05-17T08:56:37;94002.06;;;28.22;49.44
6090;BME280;3073;42.660;23.316;2023-05-17T08:59:05;94009.72;;;28.04;51.09
6090;BME280;3073;42.660;23.316;2023-05-17T09:01:34;94010.16;;;27.50;51.60
6090;BME280;3073;42.660;23.316;2023-05-17T09:04:03;94006.28;;;27.18;51.48
6090;BME280;3073;42.660;23.316;2023-05-17T09:06:30;94011.13;;;28.65;51.39
6090;BME280;3073;42.660;23.316;2023-05-17T09:08:58;94004.50;;;29.26;48.70
6090;BME280;3073;42.660;23.316;2023-05-17T09:11:28;94009.53;;;28.97;50.00
6090;BME280;3073;42.660;23.316;2023-05-17T09:13:57;94001.53;;;29.27;49.40
6090;BME280;3073;42.660;23.316;2023-05-17T09:16:29;93999.69;;;29.35;48.93
6090;BME280;3073;42.660;23.316;2023-05-17T09:18:57;94002.03;;;30.33;47.65
6090;BME280;3073;42.660;23.316;2023-05-17T09:21:24;93997.53;;;29.47;49.00
6090;BME280;3073;42.660;23.316;2023-05-17T09:23:52;93997.03;;;29.96;47.99
6090;BME280;3073;42.660;23.316;2023-05-17T09:26:20;93993.94;;;29.19;48.58
6090;BME280;3073;42.660;23.316;2023-05-17T09:28:49;94002.19;;;27.73;50.50
6090;BME280;3073;42.660;23.316;2023-05-17T09:31:16;93999.22;;;27.45;51.44
6090;BME280;3073;42.660;23.316;2023-05-17T09:33:43;93994.81;;;27.82;51.79
6090;BME280;3073;42.660;23.316;2023-05-17T09:36:18;93992.84;;;27.46;51.39
6090;BME280;3073;42.660;23.316;2023-05-17T09:38:52;93995.50;;;28.39;51.01
6090;BME280;3073;42.660;23.316;2023-05-17T09:41:19;93997.03;;;28.84;49.79
6090;BME280;3073;42.660;23.316;2023-05-17T09:43:46;94001.44;;;28.36;50.45
6090;BME280;3073;42.660;23.316;2023-05-17T09:46:14;94007.88;;;29.26;49.43
6090;BME280;3073;42.660;23.316;2023-05-17T09:48:41;94014.31;;;27.29;51.45
6090;BME280;3073;42.660;23.316;2023-05-17T09:51:11;94006.41;;;28.07;50.93
6090;BME280;3073;42.660;23.316;2023-05-17T09:53:38;94002.63;;;27.75;51.88
6090;BME280;3073;42.660;23.316;2023-05-17T09:56:06;94007.44;;;28.03;51.41
6090;BME280;3073;42.660;23.316;2023-05-17T09:58:35;93995.72;;;27.11;52.74
6090;BME280;3073;42.660;23.316;2023-05-17T10:01:04;93999.19;;;26.50;53.41
6090;BME280;3073;42.660;23.316;2023-05-17T10:03:34;93996.94;;;26.30;53.57
6090;BME280;3073;42.660;23.316;2023-05-17T10:06:02;93989.41;;;27.16;53.62
6090;BME280;3073;42.660;23.316;2023-05-17T10:08:32;93985.03;;;28.09;52.27
6090;BME280;3073;42.660;23.316;2023-05-17T10:11:02;93987.34;;;27.84;51.74
6090;BME280;3073;42.660;23.316;2023-05-17T10:13:33;93989.59;;;28.12;51.33
6090;BME280;3073;42.660;23.316;2023-05-17T10:16:02;93977.50;;;27.74;52.11
6090;BME280;3073;42.660;23.316;2023-05-17T10:18:29;93971.81;;;26.90;52.19
6090;BME280;3073;42.660;23.316;2023-05-17T10:20:58;93964.00;;;26.93;53.00
6090;BME280;3073;42.660;23.316;2023-05-17T10:23:28;93956.97;;;26.97;53.30
6090;BME280;3073;42.660;23.316;2023-05-17T10:25:56;93948.63;;;26.69;54.19
6090;BME280;3073;42.660;23.316;2023-05-17T10:28:26;93939.63;;;26.67;54.81
6090;BME280;3073;42.660;23.316;2023-05-17T10:30:54;93938.78;;;27.08;54.13
6090;BME280;3073;42.660;23.316;2023-05-17T10:33:23;93931.47;;;26.94;53.35
6090;BME280;3073;42.660;23.316;2023-05-17T10:35:53;93915.00;;;26.45;54.12
6090;BME280;3073;42.660;23.316;2023-05-17T10:38:23;93911.69;;;26.74;54.19
6090;BME280;3073;42.660;23.316;2023-05-17T10:40:50;93905.28;;;26.94;53.91
6090;BME280;3073;42.660;23.316;2023-05-17T10:43:19;93898.47;;;26.90;53.72
6090;BME280;3073;42.660;23.316;2023-05-17T10:45:46;93883.78;;;26.59;53.76
6090;BME280;3073;42.660;23.316;2023-05-17T10:48:14;93875.88;;;26.78;54.03
6090;BME280;3073;42.660;23.316;2023-05-17T10:50:44;93861.22;;;26.25;54.31
6090;BME280;3073;42.660;23.316;2023-05-17T10:53:11;93859.84;;;27.09;52.60
6090;BME280;3073;42.660;23.316;2023-05-17T10:55:41;93845.84;;;26.72;53.83
6090;BME280;3073;42.660;23.316;2023-05-17T10:58:16;93846.84;;;26.38;54.33
6090;BME280;3073;42.660;23.316;2023-05-17T11:00:44;93845.31;;;26.37;54.78
6090;BME280;3073;42.660;23.316;2023-05-17T11:03:14;93851.59;;;27.07;54.57
6090;BME280;3073;42.660;23.316;2023-05-17T11:05:41;93845.00;;;27.21;54.27
6090;BME280;3073;42.660;23.316;2023-05-17T11:08:16;93848.75;;;27.20;54.06
6090;BME280;3073;42.660;23.316;2023-05-17T11:11:12;93851.28;;;26.60;54.33
6090;BME280;3073;42.660;23.316;2023-05-17T11:13:50;93857.44;;;26.97;53.64
6090;BME280;3073;42.660;23.316;2023-05-17T11:16:20;93859.09;;;26.11;55.22
6090;BME280;3073;42.660;23.316;2023-05-17T11:18:52;93857.03;;;25.21;57.27
6090;BME280;3073;42.660;23.316;2023-05-17T11:21:20;93876.06;;;24.86;58.72
6090;BME280;3073;42.660;23.316;2023-05-17T11:23:50;93873.16;;;25.07;59.71
6090;BME280;3073;42.660;23.316;2023-05-17T11:26:22;93887.09;;;25.69;60.19
6090;BME280;3073;42.660;23.316;2023-05-17T11:29:00;93898.81;;;25.40;59.94
6090;BME280;3073;42.660;23.316;2023-05-17T11:31:31;93898.41;;;25.95;58.30
6090;BME280;3073;42.660;23.316;2023-05-17T11:33:58;93912.03;;;25.28;59.48
6090;BME280;3073;42.660;23.316;2023-05-17T11:36:25;93909.41;;;24.30;62.16
6090;BME280;3073;42.660;23.316;2023-05-17T11:39:09;93917.56;;;24.13;65.42
6090;BME280;3073;42.660;23.316;2023-05-17T11:41:46;93924.88;;;24.39;64.42
6090;BME280;3073;42.660;23.316;2023-05-17T11:44:14;93929.63;;;25.31;62.83
6090;BME280;3073;42.660;23.316;2023-05-17T11:46:43;93939.31;;;26.26;61.00
6090;BME280;3073;42.660;23.316;2023-05-17T11:49:11;93943.50;;;25.70;61.79
6090;BME280;3073;42.660;23.316;2023-05-17T11:51:39;93942.97;;;26.02;60.82
6090;BME280;3073;42.660;23.316;2023-05-17T11:54:06;93944.66;;;25.91;60.96
6090;BME280;3073;42.660;23.316;2023-05-17T11:56:34;93945.72;;;26.29;59.30
6090;BME280;3073;42.660;23.316;2023-05-17T11:59:10;93946.59;;;26.36;58.91
6090;BME280;3073;42.660;23.316;2023-05-17T12:01:53;93942.78;;;26.11;59.28
6090;BME280;3073;42.660;23.316;2023-05-17T12:04:27;93937.91;;;26.51;57.92
6090;BME280;3073;42.660;23.316;2023-05-17T12:07:09;93950.81;;;26.41;58.15
6090;BME280;3073;42.660;23.316;2023-05-17T12:09:39;93950.63;;;26.30;57.94
6090;BME280;3073;42.660;23.316;2023-05-17T12:12:10;93939.03;;;26.12;57.31
6090;BME280;3073;42.660;23.316;2023-05-17T12:14:41;93954.81;;;26.16;56.90
6090;BME280;3073;42.660;23.316;2023-05-17T12:17:11;93941.56;;;24.97;59.13
6090;BME280;3073;42.660;23.316;2023-05-17T12:19:41;93936.38;;;25.32;59.68
6090;BME280;3073;42.660;23.316;2023-05-17T12:22:08;93922.97;;;25.52;58.31
6090;BME280;3073;42.660;23.316;2023-05-17T12:24:37;93930.44;;;26.53;56.74
6090;BME280;3073;42.660;23.316;2023-05-17T12:27:04;93925.63;;;26.13;56.74
6090;BME280;3073;42.660;23.316;2023-05-17T12:29:32;93921.81;;;25.50;57.18
6090;BME280;3073;42.660;23.316;2023-05-17T12:32:00;93923.09;;;25.05;58.48
6090;BME280;3073;42.660;23.316;2023-05-17T12:34:28;93920.03;;;25.19;58.46
6090;BME280;3073;42.660;23.316;2023-05-17T12:36:56;93929.34;;;26.12;57.02
6090;BME280;3073;42.660;23.316;2023-05-17T12:39:23;93923.81;;;26.82;55.19
6090;BME280;3073;42.660;23.316;2023-05-17T12:41:51;93927.41;;;26.74;55.09
6090;BME280;3073;42.660;23.316;2023-05-17T12:44:19;93928.16;;;26.97;54.18
6090;BME280;3073;42.660;23.316;2023-05-17T12:46:47;93931.56;;;27.54;52.89
6090;BME280;3073;42.660;23.316;2023-05-17T12:49:19;93919.44;;;26.67;54.34
6090;BME280;3073;42.660;23.316;2023-05-17T12:51:48;93919.78;;;27.15;54.35
6090;BME280;3073;42.660;23.316;2023-05-17T12:54:25;93914.28;;;26.48;56.25
6090;BME280;3073;42.660;23.316;2023-05-17T12:56:52;93914.19;;;27.16;54.91
6090;BME280;3073;42.660;23.316;2023-05-17T12:59:20;93911.16;;;24.89;58.74
6090;BME280;3073;42.660;23.316;2023-05-17T13:01:50;93919.50;;;24.63;60.36
6090;BME280;3073;42.660;23.316;2023-05-17T13:04:22;93916.41;;;25.24;60.25
6090;BME280;3073;42.660;23.316;2023-05-17T13:06:56;93906.34;;;25.06;58.54
6090;BME280;3073;42.660;23.316;2023-05-17T13:09:25;93915.59;;;25.39;59.54
6090;BME280;3073;42.660;23.316;2023-05-17T13:11:53;93924.25;;;26.20;56.54
6090;BME280;3073;42.660;23.316;2023-05-17T13:14:36;93905.41;;;25.15;58.52
6090;BME280;3073;42.660;23.316;2023-05-17T13:17:04;93906.00;;;25.08;59.45